Coldfoot, Alaska
Current Conditions -  °F | °C
As of 11:58 AM on Friday 24 Oct 2014 (Local Time) from PAEI Reporting Station
Broken Clouds Broken Clouds  
Wind Chill: 17°   Ceiling: 12000
Heat Index: 17°   Visibility: 10mi
Dew Point: 14°   Wind: 1mph
Humidity: 89%   Direction: 10°N
Pressure: 29.84"   Gusts: NA
Location:  64.5037°N, 147.659°W
Report Text: PAEI 241958Z 01001KT 10SM FEW040 SCT070 BKN120 M08/M10 A2984 RMK AO2A SLP118 T10831098 $
Loading
Personal Weather Stations






























Interactive Weather Map
Tropical Storm Tracking
New forecast layout! Learn more

10-Day Weather Forecast

Advertisements
Track Severe Weather on mobile